Time;durP1;ratioP1;P1;durP2;ratioP2;P2;SDS_P1;SDS_P2;PMS_P1;PMS_P2;Temp;Humidity;BMP_temperature;BMP_pressure;BME280_temperature;BME280_humidity;BME280_pressure;Samples;Min_cycle;Max_cycle;Signal;HPM_P1;HPM_P2
2021/05/27 00:01:46;;;;;;;11.65;10.25;;;;;;;18.92;71.04;94551.25;2955548;40;20396;-71
2021/05/27 00:03:47;;;;;;;12.18;10.15;;;;;;;18.96;70.65;94549.81;2958159;40;20393;-73
2021/05/27 00:05:49;;;;;;;14.40;10.48;;;;;;;18.95;70.73;94553.47;2957552;40;20118;-71
2021/05/27 00:07:52;;;;;;;11.77;9.68;;;;;;;18.96;70.65;94560.41;2957313;40;20059;-72
2021/05/27 00:09:54;;;;;;;11.27;9.75;;;;;;;18.94;70.62;94552.66;2957511;40;20415;-72
2021/05/27 00:11:55;;;;;;;11.50;9.43;;;;;;;18.93;70.76;94552.88;2957702;40;20100;-72
2021/05/27 00:13:58;;;;;;;10.85;9.48;;;;;;;18.92;70.75;94546.75;2958055;40;20048;-70
2021/05/27 00:16:00;;;;;;;11.68;9.80;;;;;;;18.94;70.66;94551.84;2958890;40;20063;-84
2021/05/27 00:18:01;;;;;;;13.23;10.07;;;;;;;18.93;70.79;94559.00;2962832;40;20060;-83
2021/05/27 00:20:04;;;;;;;12.57;9.85;;;;;;;18.96;70.83;94553.25;2958373;40;20360;-72
2021/05/27 00:22:06;;;;;;;13.25;10.05;;;;;;;18.97;70.62;94546.09;2957268;40;20125;-71
2021/05/27 00:24:08;;;;;;;10.63;9.52;;;;;;;18.96;70.53;94549.81;2956275;40;20064;-70
2021/05/27 00:26:10;;;;;;;11.98;10.15;;;;;;;18.98;70.73;94542.44;2956955;40;20069;-71
2021/05/27 00:28:12;;;;;;;14.38;10.70;;;;;;;18.95;70.69;94540.19;2954572;40;20049;-71
2021/05/27 00:30:15;;;;;;;11.38;10.13;;;;;;;18.96;70.64;94544.50;2951264;40;20115;-72
2021/05/27 00:32:17;;;;;;;13.07;10.52;;;;;;;18.98;70.59;94553.06;2948285;40;20498;-76
2021/05/27 00:34:19;;;;;;;11.10;9.40;;;;;;;18.99;70.45;94559.97;2956626;40;20059;-71
2021/05/27 00:36:20;;;;;;;12.63;10.02;;;;;;;18.96;70.82;94545.31;2956889;40;20060;-71
2021/05/27 00:38:22;;;;;;;10.63;9.52;;;;;;;18.96;70.80;94547.97;2958514;40;20045;-72
2021/05/27 00:40:24;;;;;;;13.20;10.25;;;;;;;18.95;70.76;94553.47;2958322;40;20134;-71
2021/05/27 00:42:25;;;;;;;11.13;9.93;;;;;;;18.95;70.80;94559.63;2957079;40;20465;-71
2021/05/27 00:44:29;;;;;;;12.27;10.43;;;;;;;18.96;70.71;94563.06;2958751;40;20045;-73
2021/05/27 00:46:31;;;;;;;13.80;10.25;;;;;;;18.94;70.81;94560.63;2955664;40;20077;-71
2021/05/27 00:50:52;;;;;;;11.60;10.27;;;;;;;18.83;71.09;94570.09;2951782;40;20360;-71
2021/05/27 00:52:56;;;;;;;12.15;10.48;;;;;;;18.81;71.14;94572.13;2958692;40;20106;-71
2021/05/27 00:54:58;;;;;;;11.23;9.93;;;;;;;18.78;71.07;94569.91;2957143;40;20077;-72
2021/05/27 00:57:02;;;;;;;12.23;10.80;;;;;;;18.79;71.23;94571.53;2958800;40;20417;-70
2021/05/27 00:59:04;;;;;;;14.45;10.77;;;;;;;18.39;72.62;94568.22;2943802;40;20515;-71
2021/05/27 01:01:06;;;;;;;13.20;10.65;;;;;;;18.30;73.22;94562.34;2952438;40;20441;-71
2021/05/27 01:03:07;;;;;;;13.13;11.50;;;;;;;18.31;73.58;94550.72;2959929;40;20391;-69
2021/05/27 01:05:11;;;;;;;12.85;11.35;;;;;;;18.33;73.28;94546.03;2959324;40;20235;-71
2021/05/27 01:07:13;;;;;;;16.95;11.15;;;;;;;18.39;73.23;94550.50;2956097;40;20082;-70
2021/05/27 01:09:15;;;;;;;13.55;11.13;;;;;;;18.48;72.94;94553.72;2957187;40;20069;-70
2021/05/27 01:11:17;;;;;;;12.50;9.95;;;;;;;18.50;72.56;94558.78;2958025;40;20357;-71
2021/05/27 01:13:20;;;;;;;13.30;11.85;;;;;;;18.55;72.26;94559.00;2959658;40;20060;-72
2021/05/27 01:15:27;;;;;;;15.20;11.55;;;;;;;18.54;72.26;94554.69;2957622;40;20053;-73
2021/05/27 01:17:29;;;;;;;14.63;11.00;;;;;;;18.53;72.10;94551.25;2957272;40;20474;-70
2021/05/27 01:19:31;;;;;;;12.75;11.40;;;;;;;18.48;72.29;94543.13;2957711;40;20055;-71
2021/05/27 01:21:33;;;;;;;14.05;11.13;;;;;;;18.38;72.57;94538.25;2952490;40;20508;-71
2021/05/27 01:23:36;;;;;;;15.32;11.05;;;;;;;18.35;72.83;94538.69;2958289;40;20117;-70
2021/05/27 01:25:38;;;;;;;12.90;11.45;;;;;;;18.35;72.74;94528.06;2955624;40;20142;-71
2021/05/27 01:27:39;;;;;;;12.77;11.48;;;;;;;18.35;72.67;94522.78;2954735;40;20053;-71
2021/05/27 01:29:42;;;;;;;12.32;10.98;;;;;;;18.38;72.50;94522.34;2958438;40;20080;-71
2021/05/27 01:31:43;;;;;;;19.73;12.55;;;;;;;18.30;73.18;94519.91;2956982;40;20065;-72
2021/05/27 01:33:45;;;;;;;18.67;13.65;;;;;;;18.21;73.45;94513.25;2954150;40;20056;-69
2021/05/27 01:35:47;;;;;;;14.00;11.50;;;;;;;18.20;73.51;94519.59;2958330;40;20057;-70
2021/05/27 01:37:53;;;;;;;12.77;10.88;;;;;;;18.24;73.27;94509.34;2956787;40;20068;-70
2021/05/27 01:39:55;;;;;;;17.17;11.73;;;;;;;18.27;72.99;94517.69;2959690;40;20205;-82
2021/05/27 01:41:57;;;;;;;12.43;11.07;;;;;;;18.33;72.96;94514.22;2957154;40;20068;-82
2021/05/27 01:43:59;;;;;;;15.00;11.45;;;;;;;18.42;72.68;94515.59;2961565;40;20137;-82
2021/05/27 01:46:00;;;;;;;14.27;11.25;;;;;;;18.50;72.87;94511.88;2954015;40;20061;-80
2021/05/27 01:48:03;;;;;;;12.50;10.18;;;;;;;18.53;72.33;94511.44;2963703;40;20063;-80
2021/05/27 01:50:10;;;;;;;13.15;11.75;;;;;;;18.55;72.47;94511.25;2962002;40;20053;-80
2021/05/27 01:52:12;;;;;;;11.80;10.60;;;;;;;18.58;72.42;94510.81;2967286;40;20122;-82
2021/05/27 01:54:16;;;;;;;13.77;11.23;;;;;;;18.60;72.65;94508.75;2962411;40;20068;-81
2021/05/27 01:56:17;;;;;;;13.55;11.93;;;;;;;18.55;72.54;94516.56;2955933;40;20099;-82
2021/05/27 01:58:19;;;;;;;11.98;10.65;;;;;;;18.54;72.45;94514.91;2958412;40;20097;-80
2021/05/27 02:00:21;;;;;;;12.32;10.48;;;;;;;18.51;72.51;94521.47;2963973;40;20041;-80
2021/05/27 02:02:23;;;;;;;13.82;11.80;;;;;;;18.56;72.40;94520.81;2964078;40;20060;-81
2021/05/27 02:04:25;;;;;;;14.82;12.18;;;;;;;18.55;72.34;94517.34;2964101;40;20121;-80
2021/05/27 02:06:27;;;;;;;14.68;11.65;;;;;;;18.53;72.33;94513.28;2952681;40;20069;-81
2021/05/27 02:08:28;;;;;;;14.48;11.82;;;;;;;18.54;72.38;94521.03;2955900;40;20112;-80
2021/05/27 02:10:30;;;;;;;14.20;11.68;;;;;;;18.53;72.26;94523.91;2960836;40;20114;-81
2021/05/27 02:12:32;;;;;;;13.60;12.20;;;;;;;18.34;72.98;94526.44;2959587;40;20053;-81
2021/05/27 02:14:34;;;;;;;14.05;12.35;;;;;;;18.33;73.21;94527.47;2960132;40;20053;-81
2021/05/27 02:16:37;;;;;;;16.67;12.18;;;;;;;18.31;73.29;94526.88;2959162;40;20366;-82
2021/05/27 02:18:38;;;;;;;14.00;11.30;;;;;;;18.32;73.35;94523.19;2958954;40;20096;-81
2021/05/27 02:20:40;;;;;;;20.35;13.10;;;;;;;18.35;73.36;94527.28;2959677;40;20056;-82
2021/05/27 02:22:42;;;;;;;14.32;12.38;;;;;;;18.29;73.22;94528.91;2960194;40;20049;-83
2021/05/27 02:24:43;;;;;;;16.20;12.20;;;;;;;18.31;73.59;94528.72;2962481;40;20065;-80
2021/05/27 02:26:45;;;;;;;20.30;12.30;;;;;;;18.34;73.34;94528.28;2959737;40;20064;-82
2021/05/27 02:28:48;;;;;;;15.25;12.05;;;;;;;18.34;73.31;94534.38;2959046;40;20446;-70
2021/05/27 02:30:50;;;;;;;13.33;11.30;;;;;;;18.37;73.19;94531.34;2956764;40;20073;-70
2021/05/27 02:32:52;;;;;;;16.77;12.10;;;;;;;18.39;73.10;94523.97;2950089;40;20130;-71
2021/05/27 02:34:54;;;;;;;14.80;10.88;;;;;;;18.39;72.94;94517.84;2959233;40;20455;-70
2021/05/27 02:36:55;;;;;;;15.73;11.65;;;;;;;18.37;73.02;94520.72;2954693;40;20074;-71
2021/05/27 02:38:57;;;;;;;15.45;11.05;;;;;;;18.36;72.81;94529.69;2956225;40;20080;-69
2021/05/27 02:40:59;;;;;;;14.73;11.70;;;;;;;18.36;73.22;94527.03;2958266;40;20157;-70
2021/05/27 02:43:01;;;;;;;15.70;10.77;;;;;;;18.37;72.71;94526.03;2958148;40;20376;-72
2021/05/27 02:45:04;;;;;;;21.08;11.20;;;;;;;18.38;72.86;94522.34;2949815;40;20135;-70
2021/05/27 02:47:06;;;;;;;14.27;10.30;;;;;;;18.37;72.70;94527.88;2957047;40;20066;-71
2021/05/27 02:49:07;;;;;;;13.77;10.48;;;;;;;18.34;72.79;94525.63;2957907;40;20041;-70
2021/05/27 02:51:09;;;;;;;13.82;11.30;;;;;;;18.31;72.97;94521.56;2958003;40;20092;-69
2021/05/27 02:53:11;;;;;;;14.38;11.77;;;;;;;18.33;72.05;94527.47;2958334;40;20060;-72
2021/05/27 02:55:13;;;;;;;15.88;11.07;;;;;;;18.35;71.82;94516.66;2958688;40;20048;-71
2021/05/27 02:57:14;;;;;;;13.45;11.45;;;;;;;18.33;71.68;94527.47;2958940;40;20102;-70
2021/05/27 02:59:16;;;;;;;13.27;11.15;;;;;;;18.36;71.45;94524.38;2957878;40;20154;-69
2021/05/27 03:01:18;;;;;;;19.42;11.20;;;;;;;18.37;71.76;94525.22;2958146;40;20056;-73
2021/05/27 03:03:21;;;;;;;17.80;11.18;;;;;;;18.39;71.48;94523.97;2949895;40;20082;-69
2021/05/27 03:05:22;;;;;;;15.17;11.70;;;;;;;18.35;71.42;94530.72;2958763;40;20064;-72
2021/05/27 03:07:26;;;;;;;15.13;11.55;;;;;;;18.36;71.36;94527.03;2954515;40;20387;-71
2021/05/27 03:09:28;;;;;;;19.83;11.50;;;;;;;18.27;72.01;94533.63;2957102;40;20104;-72
2021/05/27 03:11:30;;;;;;;16.55;11.82;;;;;;;18.21;72.02;94518.53;2957864;40;20052;-70
2021/05/27 03:13:32;;;;;;;14.13;12.52;;;;;;;18.08;73.06;94526.56;2959016;40;20369;-73
2021/05/27 03:15:35;;;;;;;17.40;11.88;;;;;;;18.10;73.17;94533.28;2958849;40;20049;-70
2021/05/27 03:17:36;;;;;;;12.77;11.38;;;;;;;18.15;72.51;94522.84;2957236;40;20096;-70
2021/05/27 03:19:39;;;;;;;18.80;12.38;;;;;;;18.27;72.28;94530.97;2951318;40;20045;-71
2021/05/27 03:21:41;;;;;;;15.38;11.07;;;;;;;18.33;72.13;94529.31;2956737;40;20134;-71
2021/05/27 03:23:43;;;;;;;12.25;10.93;;;;;;;18.38;71.95;94526.84;2953116;40;20113;-71
2021/05/27 03:25:45;;;;;;;15.07;10.80;;;;;;;18.41;71.92;94534.34;2955854;40;20106;-70
2021/05/27 03:27:47;;;;;;;15.68;10.50;;;;;;;18.46;71.92;94536.41;2949674;40;20089;-71
2021/05/27 03:29:49;;;;;;;16.92;11.48;;;;;;;18.48;71.74;94542.31;2948695;40;20302;-70
2021/05/27 03:31:50;;;;;;;13.75;10.30;;;;;;;18.49;71.91;94549.22;2955438;40;20392;-71
2021/05/27 03:33:52;;;;;;;13.25;9.90;;;;;;;18.51;71.99;94547.19;2958792;40;20400;-71
2021/05/27 03:35:54;;;;;;;13.20;10.88;;;;;;;18.55;71.87;94553.69;2958188;40;20394;-71
2021/05/27 03:37:55;;;;;;;14.13;11.38;;;;;;;18.58;71.43;94553.25;2957544;40;20106;-70
2021/05/27 03:40:13;;;;;;;15.50;9.02;;;;;;;18.61;70.88;94555.50;2959086;40;20072;-69
2021/05/27 03:42:14;;;;;;;13.55;10.05;;;;;;;18.59;70.95;94550.41;2957418;40;20056;-71
2021/05/27 03:44:16;;;;;;;12.68;9.45;;;;;;;18.61;71.04;94542.22;2958923;40;20210;-71
2021/05/27 03:46:18;;;;;;;10.50;9.40;;;;;;;18.62;71.14;94539.34;2958097;40;20133;-71
2021/05/27 03:48:20;;;;;;;10.93;9.20;;;;;;;18.67;70.54;94546.69;2957962;40;20144;-71
2021/05/27 03:50:24;;;;;;;12.13;10.13;;;;;;;18.73;70.73;94545.00;2958994;40;20044;-70
2021/05/27 03:52:25;;;;;;;;;;;;;;;18.75;70.60;94537.66;2957490;40;20481;-70
2021/05/27 03:54:27;;;;;;;14.32;9.65;;;;;;;18.79;70.02;94538.88;2952695;40;20217;-71
2021/05/27 03:56:29;;;;;;;15.60;10.50;;;;;;;18.79;70.20;94537.03;2952856;40;20080;-70
2021/05/27 04:00:51;;;;;;;12.23;9.38;;;;;;;18.81;69.95;94548.25;2956965;40;20041;-71
2021/05/27 04:02:52;;;;;;;13.68;8.80;;;;;;;18.86;69.73;94541.50;2949081;40;20109;-70
2021/05/27 04:07:17;;;;;;;13.63;8.43;;;;;;;18.89;69.18;94549.03;2958727;40;20074;-71
2021/05/27 04:09:18;;;;;;;;;;;;;;;18.70;69.35;94556.88;2958881;40;20134;-70
2021/05/27 04:11:20;;;;;;;10.40;8.20;;;;;;;18.55;70.17;94551.03;2958571;40;19945;-72
2021/05/27 04:13:22;;;;;;;12.55;8.88;;;;;;;18.46;70.63;94549.66;2958612;40;20240;-72
2021/05/27 04:15:27;;;;;;;12.77;8.77;;;;;;;18.56;70.68;94548.19;2954410;40;20061;-72
2021/05/27 04:17:29;;;;;;;12.77;8.23;;;;;;;18.79;70.39;94552.97;2948489;40;20485;-70
2021/05/27 04:19:31;;;;;;;8.85;7.90;;;;;;;18.80;68.61;94549.28;2957242;40;20060;-73
2021/05/27 04:21:37;;;;;;;11.05;8.27;;;;;;;18.73;69.04;94548.47;2949491;40;20065;-82
2021/05/27 04:23:40;;;;;;;10.52;8.40;;;;;;;18.78;69.16;94551.34;2958275;40;20437;-82
2021/05/27 04:25:43;;;;;;;11.00;8.03;;;;;;;18.83;68.64;94561.31;2956627;40;20069;-82
2021/05/27 04:27:46;;;;;;;10.32;7.70;;;;;;;18.94;68.70;94557.16;2957723;40;20647;-83
2021/05/27 04:29:47;;;;;;;11.55;8.20;;;;;;;19.02;68.20;94543.63;2953928;40;20053;-81
2021/05/27 04:31:49;;;;;;;8.43;7.40;;;;;;;19.13;67.29;94550.09;2957855;40;20156;-84
2021/05/27 04:33:53;;;;;;;9.45;7.03;;;;;;;19.20;67.30;94550.84;2957975;40;20153;-81
2021/05/27 04:35:55;;;;;;;9.50;7.35;;;;;;;19.23;66.67;94556.56;2959749;40;20056;-81
2021/05/27 04:38:05;;;;;;;11.68;7.15;;;;;;;19.26;66.16;94557.97;2960308;40;20080;-82
2021/05/27 04:40:07;;;;;;;8.48;7.63;;;;;;;19.30;65.88;94556.50;2956963;40;20196;-86
2021/05/27 04:42:09;;;;;;;7.95;7.03;;;;;;;19.35;65.94;94558.50;2960226;40;20053;-87
2021/05/27 04:44:11;;;;;;;11.02;7.22;;;;;;;19.34;65.79;94551.59;2962216;40;20071;-85
2021/05/27 04:46:12;;;;;;;8.73;7.15;;;;;;;19.40;65.80;94556.00;2959849;40;20105;-82
2021/05/27 04:48:15;;;;;;;9.07;6.88;;;;;;;19.44;65.46;94558.03;2960919;40;20053;-81
2021/05/27 04:50:18;;;;;;;8.75;7.00;;;;;;;19.49;65.47;94564.50;2960600;40;20134;-84
2021/05/27 04:52:20;;;;;;;10.40;7.50;;;;;;;19.46;65.36;94563.09;2959392;40;20057;-82
2021/05/27 04:54:22;;;;;;;8.95;7.30;;;;;;;19.46;65.74;94571.06;2960470;40;20089;-82
2021/05/27 04:56:23;;;;;;;13.70;7.57;;;;;;;19.50;65.40;94555.53;2960524;40;20170;-83
2021/05/27 04:58:26;;;;;;;13.20;7.93;;;;;;;19.56;65.43;94565.28;2960803;40;20081;-83
2021/05/27 05:00:28;;;;;;;12.52;7.97;;;;;;;19.63;65.30;94558.06;2959591;40;20154;-82
2021/05/27 05:02:29;;;;;;;10.25;8.73;;;;;;;19.73;65.18;94562.91;2959894;40;20079;-82
2021/05/27 05:04:31;;;;;;;13.55;10.10;;;;;;;19.72;65.60;94559.41;2960450;40;20453;-82
2021/05/27 05:06:33;;;;;;;10.10;8.38;;;;;;;19.74;65.44;94557.38;2957866;40;20154;-81
2021/05/27 05:08:34;;;;;;;13.40;9.15;;;;;;;19.78;65.22;94557.75;2957190;40;20153;-83
2021/05/27 05:10:37;;;;;;;11.27;9.32;;;;;;;19.79;65.17;94557.53;2959191;40;20060;-83
2021/05/27 05:12:51;;;;;;;11.00;9.53;;;;;;;19.83;65.32;94560.53;2960584;40;20354;-82
2021/05/27 05:14:53;;;;;;;;;;;;;;;19.90;64.91;94549.88;2952211;40;20351;-83
2021/05/27 05:16:54;;;;;;;17.40;10.75;;;;;;;19.92;64.71;94551.28;2952056;40;20383;-83
2021/05/27 05:18:56;;;;;;;13.30;9.82;;;;;;;19.97;65.02;94555.94;2958118;40;20357;-81
2021/05/27 05:20:58;;;;;;;11.95;10.30;;;;;;;20.03;65.10;94549.72;2961288;40;20049;-81
2021/05/27 05:23:00;;;;;;;15.02;11.20;;;;;;;20.06;64.96;94546.63;2952155;40;20474;-84
2021/05/27 05:25:03;;;;;;;13.23;10.38;;;;;;;20.14;65.05;94556.16;2962177;40;20088;-82
2021/05/27 05:27:05;;;;;;;16.98;11.13;;;;;;;20.23;64.92;94560.13;2958925;40;20092;-83
2021/05/27 05:29:07;;;;;;;16.25;11.68;;;;;;;19.97;65.51;94555.94;2960635;40;20414;-81
2021/05/27 05:31:08;;;;;;;16.95;11.45;;;;;;;19.88;65.79;94562.56;2958146;40;20053;-83
2021/05/27 05:33:10;;;;;;;15.75;11.82;;;;;;;19.88;66.44;94557.25;2964732;40;20049;-83
2021/05/27 05:35:13;;;;;;;22.52;12.68;;;;;;;19.73;66.94;94557.59;2960713;40;20056;-84
2021/05/27 05:37:15;;;;;;;15.48;12.48;;;;;;;19.79;66.40;94554.88;2960990;40;20414;-84
2021/05/27 05:39:17;;;;;;;18.77;13.82;;;;;;;19.87;66.86;94553.75;2961723;40;20064;-84
2021/05/27 05:41:19;;;;;;;19.98;12.20;;;;;;;19.99;66.14;94559.19;2962679;40;20487;-83
2021/05/27 05:43:20;;;;;;;16.20;11.90;;;;;;;20.08;65.82;94557.84;2960512;40;20428;-86
2021/05/27 05:45:23;;;;;;;19.13;14.05;;;;;;;20.19;65.25;94554.44;2960198;40;20211;-82
2021/05/27 05:47:29;;;;;;;15.40;12.77;;;;;;;20.23;65.27;94558.28;2952404;40;20119;-82
2021/05/27 05:49:31;;;;;;;17.10;12.25;;;;;;;20.38;65.24;94555.25;2960177;40;20139;-82
2021/05/27 05:51:33;;;;;;;18.80;13.60;;;;;;;20.46;64.59;94559.47;2960387;40;20216;-80
2021/05/27 05:53:36;;;;;;;21.23;13.77;;;;;;;20.51;64.52;94554.28;2960679;40;20060;-82
2021/05/27 05:55:38;;;;;;;23.15;14.30;;;;;;;20.58;64.27;94570.19;2959485;40;20132;-80
2021/05/27 05:57:40;;;;;;;28.83;14.65;;;;;;;20.65;64.09;94565.59;2958462;40;20060;-83
2021/05/27 05:59:42;;;;;;;34.35;16.05;;;;;;;20.76;63.64;94567.50;2952776;40;20154;-85
2021/05/27 06:01:44;;;;;;;53.28;19.60;;;;;;;20.76;63.22;94562.16;2950731;40;20092;-81
2021/05/27 06:03:46;;;;;;;36.67;16.70;;;;;;;20.64;63.42;94555.97;2957468;40;20137;-82
2021/05/27 06:05:48;;;;;;;123.38;26.60;;;;;;;20.73;63.36;94559.13;2959170;40;20374;-82
2021/05/27 06:07:49;;;;;;;24.52;14.30;;;;;;;20.66;62.27;94548.59;2957652;40;20142;-72
2021/05/27 06:09:51;;;;;;;26.45;12.38;;;;;;;20.73;60.75;94548.50;2959033;40;20045;-72
2021/05/27 06:11:54;;;;;;;20.05;12.07;;;;;;;20.90;61.08;94554.00;2955456;40;20057;-71
2021/05/27 06:13:56;;;;;;;27.20;13.30;;;;;;;20.71;60.40;94559.34;2950243;40;20146;-73
2021/05/27 06:15:58;;;;;;;15.75;11.60;;;;;;;20.81;60.87;94548.97;2957035;40;20093;-74
2021/05/27 06:18:00;;;;;;;18.25;12.13;;;;;;;20.93;60.67;94549.03;2958979;40;20068;-73
2021/05/27 06:20:02;;;;;;;23.10;12.90;;;;;;;21.13;60.72;94546.06;2958846;40;20045;-73
2021/05/27 06:22:06;;;;;;;48.97;15.77;;;;;;;21.32;60.07;94544.16;2959429;40;20301;-70
2021/05/27 06:24:08;;;;;;;;;;;;;;;21.30;59.17;94543.56;2959844;40;20057;-73
2021/05/27 06:26:11;;;;;;;32.05;13.80;;;;;;;21.42;58.87;94540.94;2957847;40;20046;-71
2021/05/27 06:28:13;;;;;;;16.90;11.00;;;;;;;21.34;59.07;94538.56;2954958;40;20069;-74
2021/05/27 06:30:15;;;;;;;16.63;12.00;;;;;;;21.33;57.89;94542.28;2959154;40;20101;-71
2021/05/27 06:32:17;;;;;;;19.98;12.20;;;;;;;21.36;58.16;94539.16;2957833;40;20425;-73
2021/05/27 06:34:19;;;;;;;22.45;12.50;;;;;;;21.34;58.04;94542.06;2955249;40;20064;-70
2021/05/27 06:36:21;;;;;;;30.40;12.93;;;;;;;21.13;58.70;94540.75;2958819;40;20433;-72
2021/05/27 06:38:23;;;;;;;22.92;12.02;;;;;;;21.21;58.88;94536.94;2956378;40;20147;-71
2021/05/27 06:40:25;;;;;;;25.83;12.98;;;;;;;21.17;58.98;94544.59;2957986;40;20052;-72
2021/05/27 06:42:27;;;;;;;26.00;12.18;;;;;;;21.26;59.32;94542.41;2955805;40;20042;-70
2021/05/27 06:44:29;;;;;;;50.42;16.17;;;;;;;21.38;58.64;94535.25;2953812;40;20052;-71
2021/05/27 06:46:31;;;;;;;30.23;14.27;;;;;;;21.36;59.07;94534.66;2957842;40;20072;-72
2021/05/27 06:48:32;;;;;;;17.05;12.27;;;;;;;21.24;59.23;94529.28;2958385;40;20118;-71
2021/05/27 06:50:39;;;;;;;26.48;13.35;;;;;;;21.44;59.78;94536.19;2958250;40;20306;-72
2021/05/27 06:52:42;;;;;;;26.55;13.85;;;;;;;21.65;58.87;94527.63;2959095;40;20405;-73
2021/05/27 06:54:44;;;;;;;28.02;15.43;;;;;;;21.66;58.82;94528.41;2959222;40;20275;-72
2021/05/27 06:56:46;;;;;;;39.67;15.98;;;;;;;21.81;58.54;94517.28;2958217;40;20065;-71
2021/05/27 06:58:48;;;;;;;34.05;16.58;;;;;;;21.87;57.68;94521.69;2957914;40;20068;-71
2021/05/27 07:00:50;;;;;;;17.40;13.40;;;;;;;21.71;57.39;94522.41;2957162;40;20149;-71
2021/05/27 07:02:52;;;;;;;18.23;12.45;;;;;;;21.66;56.47;94523.94;2957200;40;20419;-72
2021/05/27 07:04:54;;;;;;;45.25;21.88;;;;;;;21.63;57.01;94523.56;2953868;40;20161;-72
2021/05/27 07:06:55;;;;;;;26.83;12.20;;;;;;;21.60;55.94;94524.84;2954666;40;20165;-72
2021/05/27 07:08:57;;;;;;;21.40;11.98;;;;;;;21.65;55.74;94524.16;2955293;40;20117;-71
2021/05/27 07:10:59;;;;;;;22.70;10.70;;;;;;;21.32;56.33;94525.50;2958061;40;20427;-82
2021/05/27 07:13:03;;;;;;;16.70;10.70;;;;;;;21.25;57.37;94522.94;2960053;40;20488;-84
2021/05/27 07:15:05;;;;;;;23.35;10.85;;;;;;;21.51;57.38;94536.06;2959446;40;20067;-86
2021/05/27 07:17:07;;;;;;;17.45;10.65;;;;;;;21.57;56.58;94527.16;2958962;40;20061;-73
2021/05/27 07:19:09;;;;;;;13.75;9.55;;;;;;;21.76;56.05;94525.19;2959452;40;20318;-83
2021/05/27 07:21:11;;;;;;;18.27;10.55;;;;;;;21.90;55.71;94521.25;2959282;40;20064;-83
2021/05/27 07:23:13;;;;;;;15.35;9.50;;;;;;;21.97;55.54;94524.59;2958575;40;20368;-85
2021/05/27 07:25:15;;;;;;;16.88;9.10;;;;;;;22.15;54.93;94528.97;2957886;40;20138;-82
2021/05/27 07:27:17;;;;;;;19.95;9.85;;;;;;;22.28;54.52;94522.59;2959890;40;20326;-82
2021/05/27 07:29:19;;;;;;;17.60;9.93;;;;;;;22.40;53.82;94522.56;2956430;40;20088;-72
2021/05/27 07:31:20;;;;;;;68.95;15.07;;;;;;;22.58;53.43;94516.22;2958067;40;20198;-73
2021/05/27 07:33:22;;;;;;;17.55;9.35;;;;;;;22.58;53.10;94516.22;2954286;40;20173;-72
2021/05/27 07:35:26;;;;;;;31.35;10.73;;;;;;;22.61;52.87;94511.22;2947054;40;20144;-75
2021/05/27 07:37:28;;;;;;;11.63;8.60;;;;;;;22.39;52.79;94511.09;2956978;40;20053;-74
2021/05/27 07:39:30;;;;;;;15.52;8.50;;;;;;;22.41;53.60;94508.16;2957481;40;20103;-73
2021/05/27 07:41:32;;;;;;;19.25;9.48;;;;;;;22.41;53.46;94511.66;2958381;40;20286;-73
2021/05/27 07:43:34;;;;;;;31.73;9.82;;;;;;;22.03;53.40;94514.84;2958512;40;20069;-71
2021/05/27 07:45:36;;;;;;;12.82;7.90;;;;;;;22.23;54.12;94511.81;2957576;40;20053;-71
2021/05/27 07:47:37;;;;;;;16.85;8.88;;;;;;;22.54;53.12;94509.75;2950091;40;20050;-72
2021/05/27 07:49:40;;;;;;;13.80;7.82;;;;;;;22.69;52.99;94513.53;2950136;40;20588;-72
2021/05/27 07:51:43;;;;;;;17.15;8.57;;;;;;;22.80;52.60;94509.19;2955257;40;20053;-73
2021/05/27 07:53:45;;;;;;;21.50;8.85;;;;;;;22.82;51.75;94514.25;2957960;40;20287;-72
2021/05/27 07:55:47;;;;;;;23.23;7.35;;;;;;;22.72;51.97;94506.88;2957956;40;20411;-72
2021/05/27 07:57:49;;;;;;;19.67;8.07;;;;;;;22.45;52.63;94512.78;2957142;40;20055;-71
2021/05/27 07:59:51;;;;;;;9.27;6.28;;;;;;;22.29;51.97;94506.34;2957912;40;20059;-72
2021/05/27 08:01:52;;;;;;;11.70;7.05;;;;;;;22.53;52.23;94500.94;2957212;40;20102;-72
2021/05/27 08:03:54;;;;;;;13.73;7.00;;;;;;;22.73;51.24;94508.50;2958689;40;20450;-74
2021/05/27 08:05:56;;;;;;;17.40;7.35;;;;;;;22.73;51.07;94513.03;2956289;40;20349;-73
2021/05/27 08:07:58;;;;;;;16.85;6.75;;;;;;;22.45;52.23;94512.78;2958436;40;20077;-71
2021/05/27 08:10:00;;;;;;;14.07;6.50;;;;;;;22.70;51.45;94503.66;2957081;40;20109;-72
2021/05/27 08:12:02;;;;;;;19.88;7.25;;;;;;;22.97;51.31;94493.16;2958189;40;20065;-71
2021/05/27 08:14:04;;;;;;;12.55;6.28;;;;;;;22.96;50.89;94501.44;2957767;40;20115;-73
2021/05/27 08:16:06;;;;;;;22.63;9.32;;;;;;;22.86;51.89;94494.84;2957438;40;20119;-84
2021/05/27 08:18:08;;;;;;;9.50;6.03;;;;;;;22.94;50.24;94487.50;2958691;40;20057;-82
2021/05/27 08:20:10;;;;;;;18.88;6.57;;;;;;;22.73;50.61;94492.47;2954045;40;20108;-84
2021/05/27 08:22:14;;;;;;;27.25;6.63;;;;;;;22.82;50.48;94495.56;2957398;40;20061;-83
2021/05/27 08:24:16;;;;;;;13.82;5.40;;;;;;;22.89;50.69;94491.72;2951918;40;20065;-84
2021/05/27 08:26:18;;;;;;;23.98;6.88;;;;;;;23.02;51.47;94485.28;2959393;40;20423;-84
2021/05/27 08:28:20;;;;;;;12.38;5.38;;;;;;;22.69;50.58;94486.81;2955745;40;20653;-83
2021/05/27 08:30:22;;;;;;;8.57;5.30;;;;;;;22.81;49.74;94484.06;2959364;40;20150;-86
2021/05/27 08:32:23;;;;;;;16.02;5.38;;;;;;;22.89;49.47;94475.69;2959859;40;20060;-85
2021/05/27 08:34:25;;;;;;;9.35;5.30;;;;;;;23.08;49.43;94478.13;2951376;40;20053;-86
2021/05/27 08:36:27;;;;;;;10.82;4.70;;;;;;;23.06;48.48;94461.56;2954141;40;20057;-84
2021/05/27 08:38:29;;;;;;;7.93;4.70;;;;;;;23.24;48.61;94468.53;2955693;40;20045;-85
2021/05/27 08:40:31;;;;;;;18.70;5.88;;;;;;;23.14;48.00;94461.13;2960127;40;20442;-85
2021/05/27 08:42:35;;;;;;;11.02;4.75;;;;;;;23.27;48.05;94463.50;2961227;40;20056;-82
2021/05/27 08:44:39;;;;;;;8.73;5.85;;;;;;;23.52;47.88;94462.25;2959016;40;20057;-80
2021/05/27 08:46:41;;;;;;;9.02;5.05;;;;;;;23.71;47.33;94473.50;2962500;40;20049;-84
2021/05/27 08:48:44;;;;;;;11.02;4.45;;;;;;;23.69;46.57;94464.91;2951519;40;20141;-83
2021/05/27 08:50:47;;;;;;;9.43;4.88;;;;;;;23.70;46.33;94456.66;2959085;40;20057;-83
2021/05/27 08:52:49;;;;;;;;;;;;;;;23.64;47.40;94462.13;2957069;40;20092;-81
2021/05/27 08:54:50;;;;;;;22.38;5.63;;;;;;;23.91;47.26;94460.41;2950156;40;19944;-82
2021/05/27 08:56:52;;;;;;;7.32;4.63;;;;;;;24.08;45.89;94460.34;2956632;40;20060;-83
2021/05/27 08:58:57;;;;;;;15.02;4.90;;;;;;;24.14;46.41;94461.25;2959064;40;20056;-83
2021/05/27 09:00:59;;;;;;;9.05;6.22;;;;;;;24.33;46.25;94459.06;2958634;40;21185;-83
2021/05/27 09:03:05;;;;;;;13.30;5.10;;;;;;;24.14;45.46;94455.09;2957506;40;20072;-82
2021/05/27 09:05:14;;;;;;;11.18;4.93;;;;;;;24.21;45.79;94442.31;2956117;40;20140;-71
2021/05/27 09:07:16;;;;;;;9.65;5.22;;;;;;;23.59;47.08;94444.16;2953349;40;20041;-72
2021/05/27 09:09:18;;;;;;;8.02;5.28;;;;;;;23.92;47.26;94448.66;2955527;40;20164;-71
2021/05/27 09:11:21;;;;;;;8.52;5.38;;;;;;;24.20;46.83;94441.50;2951176;40;20057;-72
2021/05/27 09:13:23;;;;;;;8.15;5.45;;;;;;;24.46;46.23;94439.91;2962056;40;20136;-84
2021/05/27 09:15:24;;;;;;;9.48;5.57;;;;;;;24.61;46.07;94446.50;2957148;40;20053;-81
2021/05/27 09:17:27;;;;;;;14.95;6.40;;;;;;;24.77;46.33;94437.56;2959664;40;20064;-82
2021/05/27 09:19:28;;;;;;;9.30;4.88;;;;;;;24.77;46.00;94434.06;2961011;40;20351;-82
2021/05/27 09:21:36;;;;;;;10.00;5.85;;;;;;;24.85;46.05;94437.09;2961071;40;20382;-82
2021/05/27 09:23:51;;;;;;;14.32;6.28;;;;;;;24.85;46.21;94433.63;2946962;40;20069;-85
2021/05/27 09:26:04;;;;;;;15.43;5.78;;;;;;;24.82;46.55;94434.91;2952860;40;20140;-84
2021/05/27 09:28:07;;;;;;;15.38;5.55;;;;;;;24.93;46.17;94438.53;2958903;40;20051;-84
2021/05/27 09:30:09;;;;;;;12.38;6.03;;;;;;;24.81;47.11;94432.50;2959748;40;20065;-84
2021/05/27 09:32:12;;;;;;;8.65;5.30;;;;;;;24.67;46.91;94413.34;2959869;40;20158;-71
2021/05/27 09:34:14;;;;;;;11.45;5.80;;;;;;;24.80;46.98;94418.31;2955232;40;20158;-70